Cabot Strait: Past 24 Hour Conditions

 

Winterland

07:30 PM NST 01 March 2015
Disclaimer

This table is a summary of hourly weather conditions for the past 24 hours.
Please note that these observations might not always be representative of weather conditions over their associated marine area.

Date / Time
(NST)
Wind(knots) Conditions Visibility(km) Pressure(kPa) Air tempC) Relative humidity(%) Dew pointC) Wind Chill
01 March 2015
19:30 WNW 8 N/A 15 102.9 -6 66 -11 -11
18:30 WNW 11 N/A 15 103.0 -5 63 -11 -12
17:30 WNW 15 gust 20 N/A 15 103.0 -5 58 -12 -12
16:30 W 14 gust 22 N/A 15 102.9 -4 64 -10 -11
15:30 W 16 gust 26 N/A 15 103.0 -3 57 -11 -11
14:30 W 20 gust 27 N/A 15 103.0 -4 61 -10 -12
13:30 W 23 gust 29 N/A 15 102.9 -4 57 -11 -13
12:30 W 22 gust 29 N/A 15 103.0 -3 55 -11 -12
11:30 W 22 N/A 15 103.0 -4 55 -12 -13
10:30 W 18 N/A 15 103.1 -3 56 -11 -11
9:30 W 12 gust 17 N/A 15 103.1 -4 55 -12 -11
8:30 WSW 8 N/A 15 103.1 -5 54 -13 -11
7:30 SW 5 N/A 15 103.1 -8 61 -14 -12
6:30 WSW 10 N/A 15 103.1 -7 60 -14 -14
5:30 WSW 7 N/A 15 103.1 -8 65 -13 -13
4:30 WSW 7 N/A 15 103.1 -8 65 -13 -13
3:30 WSW 8 gust 17 N/A 15 103.1 -7 63 -13 -13
2:30 W 13 N/A 15 103.1 -7 60 -13 -14
1:30 W 15 N/A 15 103.1 -6 60 -13 -14
0:30 W 15 gust 24 N/A 15 103.1 -7 62 -13 -15
28 February 2015
23:30 W 20 gust 26 Light Snow 15 103.1 -6 65 -12 -16
22:30 WSW 12 N/A 15 103.1 -7 66 -12 -14
21:30 W 15 gust 26 N/A 15 103.0 -7 65 -12 -15
20:30 W 19 gust 25 Light Snow 8 103.0 -7 74 -11 -16
19:30 W 17 gust 25 N/A 8 102.9 -8 71 -12 -17

Zoom-in to make a selection

Map of Atlantic - Newfoundland marine weather areas Southwestern Grand Banks - 44138 Banquereau - 44139 Tail of the Bank - 44140 Nickerson Bank - 44251 Northeast Burgeo Bank - 44255 Blanc-Sablon Airport Cap Whittle Chevery Natashquan Airport Heath Point Miscou Island Grand Étang Ingonish Beach North Mountain St.Paul Island J.A. Douglas McCurdy Sydney Airport Charlottetown Airport East Point North Cape Argentia Bonavista Burgeo Cape Race Corner Brook Daniel's Harbour Englee Ferolle Point La Scie Port aux Basques Rocky Harbour Sagona Island St. Anthony Airport St. John's Int'l Airport St. Lawrence Stephenville Airport Twillingate Winterland Wreckhouse Cartwright Airport Mary's Harbour Grates Cove Pool's Island Marticot Island Long Pond Îles de la Madeleine Airport
Legend:
buoy Buoy
land station Land Station

Atlantic - Newfoundland Area

Another Region

What we are doing

Date modified: